createdAt,value
2023-03-26T00:00:38.606Z,0.20
2023-03-26T00:03:07.760Z,0.20
2023-03-26T00:05:36.691Z,0.20
2023-03-26T00:08:11.614Z,0.20
2023-03-26T00:10:51.309Z,0.20
2023-03-26T00:13:21.784Z,0.20
2023-03-26T00:15:56.388Z,0.27
2023-03-26T00:18:32.287Z,0.20
2023-03-26T00:21:11.206Z,0.20
2023-03-26T00:23:42.359Z,0.30
2023-03-26T00:26:33.133Z,0.20
2023-03-26T00:29:08.602Z,0.20
2023-03-26T00:31:40.246Z,0.30
2023-03-26T00:34:10.584Z,0.20
2023-03-26T00:36:42.553Z,0.27
2023-03-26T00:39:13.152Z,0.20
2023-03-26T00:41:44.276Z,0.30
2023-03-26T00:44:12.782Z,0.20
2023-03-26T00:46:41.571Z,0.20
2023-03-26T00:49:15.126Z,0.27
2023-03-26T00:51:46.538Z,0.27
2023-03-26T00:54:20.523Z,0.30
2023-03-26T00:56:48.981Z,0.30
2023-03-26T00:59:19.697Z,0.20
2023-03-26T01:01:51.374Z,0.20
2023-03-26T01:04:27.901Z,0.30
2023-03-26T01:06:57.116Z,0.30
2023-03-26T01:09:33.962Z,0.20
2023-03-26T01:12:03.656Z,0.20
2023-03-26T01:14:32.027Z,0.20
2023-03-26T01:17:06.099Z,0.27
2023-03-26T01:19:41.522Z,0.30
2023-03-26T01:22:16.820Z,0.30
2023-03-26T01:24:56.936Z,0.30
2023-03-26T01:27:39.171Z,0.20
2023-03-26T01:30:17.146Z,0.20
2023-03-26T01:32:57.786Z,0.30
2023-03-26T01:35:35.588Z,0.20
2023-03-26T01:38:15.411Z,0.30
2023-03-26T01:40:51.376Z,0.30
2023-03-26T01:43:30.808Z,0.30
2023-03-26T01:46:08.862Z,0.30
2023-03-26T01:48:54.178Z,0.30
2023-03-26T01:51:55.334Z,0.20
2023-03-26T01:54:42.950Z,0.30
2023-03-26T01:57:57.428Z,0.30
2023-03-26T02:01:17.126Z,0.20
2023-03-26T02:03:53.167Z,0.20
2023-03-26T02:06:30.937Z,0.20
2023-03-26T02:09:04.560Z,0.20
2023-03-26T02:11:36.117Z,0.20
2023-03-26T02:14:05.623Z,0.30
2023-03-26T02:16:36.019Z,0.30
2023-03-26T02:19:05.881Z,0.30
2023-03-26T02:21:35.343Z,0.20
2023-03-26T02:24:04.307Z,0.30
2023-03-26T02:26:34.618Z,0.27
2023-03-26T02:29:03.690Z,0.20
2023-03-26T02:31:32.565Z,0.30
2023-03-26T02:34:01.599Z,0.20
2023-03-26T02:36:38.916Z,0.30
2023-03-26T02:39:08.380Z,0.30
2023-03-26T02:41:37.664Z,0.30
2023-03-26T02:44:06.913Z,0.30
2023-03-26T02:46:35.698Z,0.30
2023-03-26T02:49:06.187Z,0.30
2023-03-26T02:51:37.816Z,0.20
2023-03-26T02:54:09.166Z,0.20
2023-03-26T02:56:39.009Z,0.20
2023-03-26T02:59:09.304Z,0.20
2023-03-26T03:01:45.022Z,0.20
2023-03-26T03:04:16.500Z,0.20
2023-03-26T03:06:47.663Z,0.30
2023-03-26T03:09:19.126Z,0.20
2023-03-26T03:11:48.375Z,0.30
2023-03-26T03:14:16.519Z,0.20
2023-03-26T03:16:46.305Z,0.20
2023-03-26T03:19:15.199Z,0.30
2023-03-26T03:21:43.963Z,0.20
2023-03-26T03:24:13.986Z,0.20
2023-03-26T03:26:45.908Z,0.30
2023-03-26T03:29:14.633Z,0.30
2023-03-26T03:31:43.043Z,0.30
2023-03-26T03:34:11.603Z,0.30
2023-03-26T03:36:40.105Z,0.30
2023-03-26T03:39:09.048Z,0.20
2023-03-26T03:41:39.616Z,0.30
2023-03-26T03:44:08.933Z,0.40
2023-03-26T03:46:37.397Z,0.30
2023-03-26T03:49:05.719Z,0.40
2023-03-26T03:51:36.049Z,0.30
2023-03-26T03:54:06.471Z,0.30
2023-03-26T03:56:39.794Z,0.30
2023-03-26T03:59:13.009Z,0.30
2023-03-26T04:01:46.844Z,0.20
2023-03-26T04:04:21.591Z,0.30
2023-03-26T04:06:53.040Z,0.23
2023-03-26T04:09:20.997Z,0.20
2023-03-26T04:11:51.918Z,0.30
2023-03-26T04:14:20.995Z,0.30
2023-03-26T04:16:50.503Z,0.30
2023-03-26T04:19:19.051Z,0.20
2023-03-26T04:21:49.623Z,0.20
2023-03-26T04:24:17.945Z,0.20
2023-03-26T04:26:50.091Z,0.30
2023-03-26T04:29:24.681Z,0.27
2023-03-26T04:31:58.882Z,0.30
2023-03-26T04:34:33.758Z,0.20
2023-03-26T04:37:05.181Z,0.30
2023-03-26T04:39:36.351Z,0.30
2023-03-26T04:42:04.970Z,0.30
2023-03-26T04:44:35.048Z,0.30
2023-03-26T04:47:04.248Z,0.40
2023-03-26T04:49:32.798Z,0.30
2023-03-26T04:52:01.460Z,0.30
2023-03-26T04:54:29.692Z,0.30
2023-03-26T04:57:01.751Z,0.30
2023-03-26T04:59:34.890Z,0.20
2023-03-26T05:02:06.895Z,0.30
2023-03-26T05:04:37.292Z,0.20
2023-03-26T05:07:05.803Z,0.30
2023-03-26T05:09:35.085Z,0.30
2023-03-26T05:12:03.780Z,0.37
2023-03-26T05:14:37.768Z,0.30
2023-03-26T05:17:10.957Z,0.30
2023-03-26T05:19:40.092Z,0.20
2023-03-26T05:22:08.682Z,0.30
2023-03-26T05:24:38.061Z,0.23
2023-03-26T05:27:07.977Z,0.27
2023-03-26T05:29:36.293Z,0.27
2023-03-26T05:32:05.979Z,0.20
2023-03-26T05:34:36.598Z,0.30
2023-03-26T05:37:06.566Z,0.30
2023-03-26T05:39:35.638Z,0.30
2023-03-26T05:42:04.020Z,0.30
2023-03-26T05:44:35.822Z,0.27
2023-03-26T05:47:09.128Z,0.30
2023-03-26T05:49:42.176Z,0.20
2023-03-26T05:52:10.435Z,0.30
2023-03-26T05:54:38.677Z,0.20
2023-03-26T05:57:07.965Z,0.30
2023-03-26T05:59:37.174Z,0.30
2023-03-26T06:02:06.400Z,0.20
2023-03-26T06:04:43.206Z,0.27
2023-03-26T06:07:23.401Z,0.20
2023-03-26T06:09:54.128Z,0.20
2023-03-26T06:12:40.362Z,0.20
2023-03-26T06:15:35.576Z,0.20
2023-03-26T06:18:11.747Z,0.23
2023-03-26T06:20:58.079Z,0.20
2023-03-26T06:23:26.612Z,0.20
2023-03-26T06:25:56.213Z,0.20
2023-03-26T06:28:25.172Z,0.20
2023-03-26T06:31:23.515Z,0.20
2023-03-26T06:33:58.015Z,0.20
2023-03-26T06:36:32.539Z,0.20
2023-03-26T06:39:07.753Z,0.20
2023-03-26T06:41:36.754Z,0.30
2023-03-26T06:44:05.954Z,0.20
2023-03-26T06:46:37.974Z,0.30
2023-03-26T06:49:07.324Z,0.30
2023-03-26T06:51:39.333Z,0.30
2023-03-26T06:54:07.579Z,0.30
2023-03-26T06:56:38.280Z,0.30
2023-03-26T06:59:07.080Z,0.27
2023-03-26T07:01:35.551Z,0.20
2023-03-26T07:04:06.020Z,0.33
2023-03-26T07:06:35.188Z,0.30
2023-03-26T07:09:07.877Z,0.20
2023-03-26T07:11:38.517Z,0.30
2023-03-26T07:14:07.376Z,0.30
2023-03-26T07:16:38.876Z,0.30
2023-03-26T07:19:07.022Z,0.30
2023-03-26T07:21:36.069Z,0.30
2023-03-26T07:24:07.422Z,0.40
2023-03-26T07:26:40.200Z,0.30
2023-03-26T07:29:16.321Z,0.30
2023-03-26T07:31:55.130Z,0.30
2023-03-26T07:34:39.076Z,0.30
2023-03-26T07:37:15.630Z,0.30
2023-03-26T07:39:53.449Z,0.37
2023-03-26T07:42:35.436Z,0.30
2023-03-26T07:45:18.191Z,0.40
2023-03-26T07:47:50.011Z,0.30
2023-03-26T07:50:21.565Z,0.20
2023-03-26T07:52:50.745Z,0.20
2023-03-26T07:55:23.157Z,0.33
2023-03-26T07:58:01.075Z,0.30
2023-03-26T08:00:38.652Z,0.30
2023-03-26T08:03:48.951Z,0.27
2023-03-26T08:06:27.636Z,0.30
2023-03-26T08:09:01.640Z,0.30
2023-03-26T08:11:42.159Z,0.30
2023-03-26T08:14:38.875Z,0.20
2023-03-26T08:17:30.643Z,0.30
2023-03-26T08:20:12.381Z,0.20
2023-03-26T08:22:43.498Z,0.20
2023-03-26T08:25:21.360Z,0.20
2023-03-26T08:28:17.550Z,0.20
2023-03-26T08:30:47.090Z,0.30
2023-03-26T08:33:19.554Z,0.30
2023-03-26T08:35:49.494Z,0.20
2023-03-26T08:38:20.184Z,0.30
2023-03-26T08:41:29.142Z,0.20
2023-03-26T08:44:35.415Z,0.23
2023-03-26T08:47:34.809Z,0.20
2023-03-26T08:50:28.253Z,0.20
2023-03-26T08:53:21.134Z,0.30
2023-03-26T08:55:55.295Z,0.30
2023-03-26T08:58:59.097Z,0.20
2023-03-26T09:02:09.099Z,0.30
2023-03-26T09:05:15.168Z,0.20
2023-03-26T09:08:19.933Z,0.30
2023-03-26T09:10:54.027Z,0.30
2023-03-26T09:13:52.083Z,0.30
2023-03-26T09:16:58.502Z,0.30
2023-03-26T09:19:57.809Z,0.20
2023-03-26T09:23:00.974Z,0.20
2023-03-26T09:25:54.469Z,0.30
2023-03-26T09:29:05.148Z,0.20
2023-03-26T09:32:03.228Z,0.20
2023-03-26T09:34:33.160Z,0.20
2023-03-26T09:37:15.451Z,0.20
2023-03-26T09:39:53.392Z,0.20
2023-03-26T09:42:32.220Z,0.20
2023-03-26T09:45:25.552Z,0.30
2023-03-26T09:48:24.021Z,0.30
2023-03-26T09:51:10.945Z,0.20
2023-03-26T09:54:06.275Z,0.20
2023-03-26T09:56:46.726Z,0.20
2023-03-26T09:59:41.472Z,0.20
2023-03-26T10:02:45.925Z,0.30
2023-03-26T10:05:32.179Z,0.20
2023-03-26T10:08:18.605Z,0.20
2023-03-26T10:10:54.019Z,0.20
2023-03-26T10:13:31.720Z,0.30
2023-03-26T10:16:17.621Z,0.20
2023-03-26T10:18:57.096Z,0.20
2023-03-26T10:21:36.267Z,0.30
2023-03-26T10:24:20.116Z,0.30
2023-03-26T10:27:09.330Z,0.27
2023-03-26T10:30:31.561Z,0.20
2023-03-26T10:33:13.181Z,0.30
2023-03-26T10:36:23.836Z,0.30
2023-03-26T10:39:37.681Z,0.20
2023-03-26T10:42:37.117Z,0.30
2023-03-26T10:45:28.545Z,0.20
2023-03-26T10:48:27.330Z,0.20
2023-03-26T10:51:23.142Z,0.30
2023-03-26T10:53:57.051Z,0.30
2023-03-26T10:56:29.579Z,0.30
2023-03-26T10:58:58.411Z,0.30
2023-03-26T11:01:41.591Z,0.30
2023-03-26T11:04:22.190Z,0.23
2023-03-26T11:07:00.812Z,0.30
2023-03-26T11:09:39.913Z,0.30
2023-03-26T11:12:26.482Z,0.30
2023-03-26T11:15:09.814Z,0.30
2023-03-26T11:17:50.373Z,0.30
2023-03-26T11:20:34.401Z,0.30
2023-03-26T11:23:19.846Z,0.20
2023-03-26T11:26:07.682Z,0.20
2023-03-26T11:29:04.743Z,0.40
2023-03-26T11:31:55.771Z,0.30
2023-03-26T11:34:29.722Z,0.30
2023-03-26T11:37:02.787Z,0.30
2023-03-26T11:39:38.844Z,0.20
2023-03-26T11:42:10.889Z,0.30
2023-03-26T11:44:43.891Z,0.40
2023-03-26T11:47:15.616Z,0.30
2023-03-26T11:49:45.643Z,0.30
2023-03-26T11:52:15.871Z,0.30
2023-03-26T11:54:50.108Z,0.30
2023-03-26T11:57:27.680Z,0.20
2023-03-26T12:00:06.675Z,0.20
2023-03-26T12:02:40.989Z,0.30
2023-03-26T12:05:19.472Z,0.20
2023-03-26T12:07:53.957Z,0.20
2023-03-26T12:10:28.713Z,0.20
2023-03-26T12:13:00.123Z,0.20
2023-03-26T12:15:32.053Z,0.30
2023-03-26T12:18:21.737Z,0.20
2023-03-26T12:21:03.105Z,0.20
2023-03-26T12:24:01.423Z,0.30
2023-03-26T12:26:41.810Z,0.30
2023-03-26T12:29:14.212Z,0.30
2023-03-26T12:31:48.367Z,0.20
2023-03-26T12:34:19.513Z,0.30
2023-03-26T12:36:54.186Z,0.30
2023-03-26T12:40:07.066Z,0.20
2023-03-26T12:44:50.582Z,0.30
2023-03-26T12:45:22.339Z,0.30
2023-03-26T12:48:01.727Z,0.20
2023-03-26T12:50:47.805Z,0.30
2023-03-26T12:53:29.870Z,0.20
2023-03-26T12:56:04.005Z,0.30
2023-03-26T12:58:56.517Z,0.30
2023-03-26T13:01:33.180Z,0.30
2023-03-26T13:04:14.625Z,0.30
2023-03-26T13:07:00.140Z,0.20
2023-03-26T13:09:47.541Z,0.20
2023-03-26T13:12:34.377Z,0.20
2023-03-26T13:15:18.926Z,0.20
2023-03-26T13:17:58.517Z,0.20
2023-03-26T13:20:33.312Z,0.20
2023-03-26T13:23:10.497Z,0.20
2023-03-26T13:25:46.943Z,0.30
2023-03-26T13:28:27.256Z,0.23
2023-03-26T13:31:05.240Z,0.23
2023-03-26T13:33:57.826Z,0.30
2023-03-26T13:36:34.804Z,0.30
2023-03-26T13:39:18.873Z,0.30
2023-03-26T13:42:00.998Z,0.30
2023-03-26T13:44:39.980Z,0.30
2023-03-26T13:47:13.162Z,0.30
2023-03-26T13:49:44.696Z,0.40
2023-03-26T13:52:19.013Z,0.30
2023-03-26T13:54:52.690Z,0.20
2023-03-26T13:57:25.575Z,0.20
2023-03-26T14:00:00.089Z,0.20
2023-03-26T14:02:35.218Z,0.27
2023-03-26T14:05:10.205Z,0.20
2023-03-26T14:07:45.455Z,0.20
2023-03-26T14:10:18.822Z,0.30
2023-03-26T14:12:55.571Z,0.20
2023-03-26T14:15:31.564Z,0.30
2023-03-26T14:18:08.135Z,0.23
2023-03-26T14:21:11.723Z,0.30
2023-03-26T14:24:25.728Z,0.30
2023-03-26T14:27:25.779Z,0.30
2023-03-26T14:30:06.139Z,0.27
2023-03-26T14:32:51.354Z,0.20
2023-03-26T14:35:35.616Z,0.20
2023-03-26T14:38:34.235Z,0.27
2023-03-26T14:41:19.335Z,0.30
2023-03-26T14:44:28.168Z,0.30
2023-03-26T14:47:16.699Z,0.20
2023-03-26T14:50:23.358Z,0.20
2023-03-26T14:53:01.505Z,0.30
2023-03-26T14:55:58.036Z,0.20
2023-03-26T14:59:03.204Z,0.20
2023-03-26T15:02:02.602Z,0.30
2023-03-26T15:05:00.985Z,0.20
2023-03-26T15:08:09.449Z,0.30
2023-03-26T15:11:01.430Z,0.30
2023-03-26T15:13:50.977Z,0.30
2023-03-26T15:16:51.489Z,0.30
2023-03-26T15:19:49.070Z,0.30
2023-03-26T15:22:57.021Z,0.27
2023-03-26T15:25:49.989Z,0.30
2023-03-26T15:28:49.986Z,0.30
2023-03-26T15:32:05.536Z,0.20
2023-03-26T15:34:59.804Z,0.30
2023-03-26T15:37:58.688Z,0.20
2023-03-26T15:40:49.120Z,0.30
2023-03-26T15:43:20.222Z,0.30
2023-03-26T15:45:54.988Z,0.30
2023-03-26T15:48:56.368Z,0.30
2023-03-26T15:51:46.805Z,0.30
2023-03-26T15:54:24.725Z,0.20
2023-03-26T15:57:26.875Z,0.30
2023-03-26T16:00:15.487Z,0.30
2023-03-26T16:02:53.996Z,0.30
2023-03-26T16:05:34.403Z,0.30
2023-03-26T16:08:11.512Z,0.30
2023-03-26T16:10:46.792Z,0.20
2023-03-26T16:13:38.917Z,0.30
2023-03-26T16:16:24.051Z,0.20
2023-03-26T16:18:58.585Z,0.27
2023-03-26T16:21:55.734Z,0.20
2023-03-26T16:24:30.727Z,0.30
2023-03-26T16:27:31.909Z,0.30
2023-03-26T16:30:30.607Z,0.20
2023-03-26T16:33:12.566Z,0.30
2023-03-26T16:36:07.300Z,0.30
2023-03-26T16:38:55.947Z,0.30
2023-03-26T16:41:27.608Z,0.30
2023-03-26T16:44:14.824Z,0.30
2023-03-26T16:46:57.534Z,0.40
2023-03-26T16:49:37.902Z,0.30
2023-03-26T16:52:23.282Z,0.30
2023-03-26T16:54:55.140Z,0.30
2023-03-26T16:57:28.886Z,0.20
2023-03-26T17:00:24.382Z,0.30
2023-03-26T17:03:08.128Z,0.33
2023-03-26T17:05:41.214Z,0.30
2023-03-26T17:08:19.233Z,0.30
2023-03-26T17:11:18.597Z,0.30
2023-03-26T17:14:01.953Z,0.30
2023-03-26T17:16:36.079Z,0.30
2023-03-26T17:19:20.696Z,0.30
2023-03-26T17:21:56.771Z,0.40
2023-03-26T17:24:35.680Z,0.27
2023-03-26T17:27:17.788Z,0.30
2023-03-26T17:30:24.995Z,0.37
2023-03-26T17:32:56.882Z,0.30
2023-03-26T17:35:44.003Z,0.40
2023-03-26T17:38:46.471Z,0.30
2023-03-26T17:41:17.850Z,0.30
2023-03-26T17:43:47.711Z,0.40
2023-03-26T17:46:30.449Z,0.30
2023-03-26T17:49:06.179Z,0.40
2023-03-26T17:51:48.785Z,0.30
2023-03-26T17:54:24.084Z,0.30
2023-03-26T17:56:54.706Z,0.40
2023-03-26T17:59:30.119Z,0.43
2023-03-26T18:02:01.264Z,0.40
2023-03-26T18:04:37.004Z,0.30
2023-03-26T18:07:37.651Z,0.40
2023-03-26T18:10:33.346Z,0.40
2023-03-26T18:13:19.051Z,0.40
2023-03-26T18:16:06.400Z,0.40
2023-03-26T18:18:42.333Z,0.50
2023-03-26T18:21:20.755Z,0.40
2023-03-26T18:23:52.986Z,0.30
2023-03-26T18:26:25.124Z,0.40
2023-03-26T18:28:55.695Z,0.30
2023-03-26T18:31:26.950Z,0.40
2023-03-26T18:33:59.340Z,0.30
2023-03-26T18:36:29.371Z,0.50
2023-03-26T18:39:07.953Z,0.50
2023-03-26T18:41:39.435Z,0.40
2023-03-26T18:44:19.676Z,0.40
2023-03-26T18:46:48.890Z,0.40
2023-03-26T18:49:18.904Z,0.37
2023-03-26T18:51:57.600Z,0.40
2023-03-26T18:54:35.196Z,0.40
2023-03-26T18:57:15.555Z,0.40
2023-03-26T19:00:16.165Z,0.30
2023-03-26T19:02:48.072Z,0.40
2023-03-26T19:05:20.223Z,0.30
2023-03-26T19:08:06.688Z,0.40
2023-03-26T19:10:42.322Z,0.40
2023-03-26T19:13:15.550Z,0.50
2023-03-26T19:15:48.960Z,0.40
2023-03-26T19:18:28.515Z,0.40
2023-03-26T19:21:05.721Z,0.50
2023-03-26T19:23:38.468Z,0.50
2023-03-26T19:26:11.970Z,0.50
2023-03-26T19:28:43.290Z,0.40
2023-03-26T19:31:23.627Z,0.50
2023-03-26T19:33:57.839Z,0.40
2023-03-26T19:36:30.761Z,0.50
2023-03-26T19:39:11.763Z,0.50
2023-03-26T19:41:43.928Z,0.40
2023-03-26T19:44:26.233Z,0.47
2023-03-26T19:47:03.908Z,0.40
2023-03-26T19:49:44.409Z,0.40
2023-03-26T19:52:16.252Z,0.50
2023-03-26T19:55:01.942Z,0.50
2023-03-26T19:57:34.859Z,0.50
2023-03-26T20:00:41.637Z,0.50
2023-03-26T20:03:17.036Z,0.50
2023-03-26T20:05:45.325Z,0.30
2023-03-26T20:08:18.782Z,0.50
2023-03-26T20:10:49.376Z,0.57
2023-03-26T20:13:25.133Z,0.50
2023-03-26T20:16:05.620Z,0.60
2023-03-26T20:18:35.356Z,0.50
2023-03-26T20:21:03.720Z,0.50
2023-03-26T20:23:31.861Z,0.50
2023-03-26T20:26:00.171Z,0.50
2023-03-26T20:30:58.778Z,0.60
2023-03-26T20:33:35.217Z,0.50
2023-03-26T20:36:03.877Z,0.40
2023-03-26T20:38:39.195Z,0.47
2023-03-26T20:41:10.774Z,0.40
2023-03-26T20:43:40.284Z,0.50
2023-03-26T20:46:08.737Z,0.50
2023-03-26T20:48:37.950Z,0.40
2023-03-26T20:51:06.393Z,0.50
2023-03-26T20:53:34.967Z,0.50
2023-03-26T20:56:03.615Z,0.60
2023-03-26T20:58:32.596Z,0.40
2023-03-26T21:01:03.249Z,0.50
2023-03-26T21:03:37.700Z,0.60
2023-03-26T21:06:10.846Z,0.40
2023-03-26T21:08:42.783Z,0.60
2023-03-26T21:11:27.470Z,0.50
2023-03-26T21:14:04.020Z,0.50
2023-03-26T21:16:37.038Z,0.60
2023-03-26T21:19:06.340Z,0.50
2023-03-26T21:22:09.190Z,0.50
2023-03-26T21:24:59.594Z,0.70
2023-03-26T21:27:39.475Z,0.57
2023-03-26T21:30:14.627Z,0.50
2023-03-26T21:32:46.498Z,0.50
2023-03-26T21:35:21.843Z,0.60
2023-03-26T21:37:52.874Z,0.50
2023-03-26T21:40:22.457Z,0.40
2023-03-26T21:42:54.907Z,0.40
2023-03-26T21:45:29.997Z,0.50
2023-03-26T21:48:03.882Z,0.40
2023-03-26T21:50:41.730Z,0.50
2023-03-26T21:53:44.516Z,0.50
2023-03-26T21:59:35.470Z,0.40
2023-03-26T22:02:15.360Z,0.43
2023-03-26T22:05:06.277Z,0.40
2023-03-26T22:07:56.696Z,0.40
2023-03-26T22:10:52.754Z,0.40
2023-03-26T22:13:28.476Z,0.40
2023-03-26T22:15:58.740Z,0.50
2023-03-26T22:18:30.626Z,0.50
2023-03-26T22:21:01.453Z,0.50
2023-03-26T22:23:36.379Z,0.50
2023-03-26T22:26:05.218Z,0.60
2023-03-26T22:28:38.372Z,0.40
2023-03-26T22:31:09.172Z,0.50
2023-03-26T22:33:45.106Z,0.50
2023-03-26T22:36:31.322Z,0.40
2023-03-26T22:39:01.962Z,0.47
2023-03-26T22:41:30.958Z,0.60
2023-03-26T22:44:09.383Z,0.40
2023-03-26T22:46:51.801Z,0.50
2023-03-26T22:49:26.219Z,0.53
2023-03-26T22:51:56.832Z,0.50
2023-03-26T22:54:25.025Z,0.50
2023-03-26T22:56:55.650Z,0.40
2023-03-26T22:59:25.727Z,0.43
2023-03-26T23:02:00.960Z,0.50
2023-03-26T23:04:34.384Z,0.70
2023-03-26T23:07:11.349Z,0.50
2023-03-26T23:10:03.235Z,0.50
2023-03-26T23:12:32.283Z,0.50
2023-03-26T23:15:28.788Z,0.40
2023-03-26T23:17:59.481Z,0.40
2023-03-26T23:20:39.293Z,0.50
2023-03-26T23:24:12.046Z,0.50
2023-03-26T23:26:51.304Z,0.60
2023-03-26T23:29:21.222Z,0.40
2023-03-26T23:31:56.710Z,0.40
2023-03-26T23:34:26.007Z,0.50
2023-03-26T23:37:01.700Z,0.50
2023-03-26T23:39:33.963Z,0.40
2023-03-26T23:42:03.843Z,0.50
2023-03-26T23:44:33.034Z,0.40
2023-03-26T23:47:02.444Z,0.50
2023-03-26T23:49:34.195Z,0.60
2023-03-26T23:52:03.124Z,0.40
2023-03-26T23:54:31.406Z,0.40
2023-03-26T23:57:05.190Z,0.33
2023-03-26T23:59:35.953Z,0.50
